Time;durP1;ratioP1;P1;durP2;ratioP2;P2;SDS_P1;SDS_P2;PMS_P1;PMS_P2;Temp;Humidity;BMP_temperature;BMP_pressure;BME280_temperature;BME280_humidity;BME280_pressure;Samples;Min_cycle;Max_cycle;Signal;HPM_P1;HPM_P2
2022/05/04 00:02:33;;;;;;;7.47;6.83;;;12.50;99.90;;;;;;6304201;28;20323;-53
2022/05/04 00:05:36;;;;;;;6.53;6.20;;;12.50;99.90;;;;;;6303896;28;20271;-53
2022/05/04 00:08:39;;;;;;;6.17;5.87;;;12.40;99.90;;;;;;6306906;28;20961;-53
2022/05/04 00:11:44;;;;;;;7.00;6.40;;;12.40;99.90;;;;;;6302476;28;20305;-53
2022/05/04 00:14:47;;;;;;;7.00;6.50;;;12.30;99.90;;;;;;6304967;28;20267;-53
2022/05/04 00:17:51;;;;;;;6.60;6.20;;;12.30;99.90;;;;;;6306355;28;20708;-53
2022/05/04 00:20:54;;;;;;;5.80;5.60;;;12.20;99.90;;;;;;6287286;27;20227;-52
2022/05/04 00:23:56;;;;;;;6.40;6.10;;;12.10;99.90;;;;;;6278600;28;20249;-53
2022/05/04 00:26:59;;;;;;;7.03;6.67;;;12.10;99.90;;;;;;6270101;28;20797;-54
2022/05/04 00:30:02;;;;;;;7.10;6.60;;;12.10;99.90;;;;;;6277369;28;20267;-51
2022/05/04 00:33:06;;;;;;;8.37;7.77;;;12.00;99.90;;;;;;6276906;28;20367;-51
2022/05/04 00:36:09;;;;;;;7.23;6.60;;;12.00;99.90;;;;;;6272710;28;20332;-53
2022/05/04 00:39:13;;;;;;;6.83;6.40;;;12.00;99.90;;;;;;6281037;28;20331;-53
2022/05/04 00:42:18;;;;;;;6.47;6.17;;;12.00;99.90;;;;;;6278364;28;20455;-51
2022/05/04 00:45:21;;;;;;;6.87;6.47;;;11.90;99.90;;;;;;6295257;28;20600;-53
2022/05/04 00:48:25;;;;;;;6.73;6.33;;;11.90;99.90;;;;;;6290134;28;20913;-53
2022/05/04 00:51:28;;;;;;;7.33;6.73;;;11.90;99.90;;;;;;6281605;28;20328;-53
2022/05/04 00:54:32;;;;;;;7.13;6.57;;;11.80;99.90;;;;;;6287494;28;20354;-52
2022/05/04 01:01:01;;;;;;;7.20;6.80;;;11.80;99.90;;;;;;6270009;28;20237;-52
2022/05/04 01:04:07;;;;;;;7.13;6.60;;;11.70;99.90;;;;;;6278654;28;20233;-53
2022/05/04 01:07:10;;;;;;;7.87;7.37;;;11.60;99.90;;;;;;6282393;28;20341;-53
2022/05/04 01:10:14;;;;;;;7.77;7.27;;;11.60;99.90;;;;;;6310085;28;20255;-53
2022/05/04 01:13:20;;;;;;;7.30;6.80;;;11.60;99.90;;;;;;6304293;28;20350;-53
2022/05/04 01:16:23;;;;;;;8.23;7.63;;;11.50;99.90;;;;;;6307392;28;20743;-53
2022/05/04 01:19:28;;;;;;;6.40;6.10;;;11.50;99.90;;;;;;6307259;28;20249;-53
2022/05/04 01:22:32;;;;;;;7.50;7.03;;;11.50;99.90;;;;;;6305715;28;20233;-52
2022/05/04 01:25:38;;;;;;;9.07;8.27;;;11.40;99.90;;;;;;6313645;28;20466;-53
2022/05/04 01:28:41;;;;;;;7.60;7.00;;;11.40;99.90;;;;;;6306942;28;20938;-53
2022/05/04 01:31:43;;;;;;;7.33;6.83;;;11.30;99.90;;;;;;6267040;28;20316;-48
2022/05/04 01:34:46;;;;;;;8.30;7.60;;;11.30;99.90;;;;;;6279692;28;20241;-53
2022/05/04 01:37:50;;;;;;;6.73;6.43;;;11.20;99.90;;;;;;6279674;28;20244;-52
2022/05/04 01:40:53;;;;;;;7.57;6.90;;;11.20;99.90;;;;;;6274714;28;20321;-52
2022/05/04 01:43:56;;;;;;;7.50;7.10;;;11.10;99.90;;;;;;6306030;28;20224;-53
2022/05/04 01:46:58;;;;;;;7.47;7.00;;;11.10;99.90;;;;;;6306181;28;20266;-52
2022/05/04 01:50:01;;;;;;;7.23;6.83;;;11.00;99.90;;;;;;6303727;28;20350;-52
2022/05/04 01:53:06;;;;;;;7.10;6.70;;;11.00;99.90;;;;;;6316097;27;20232;-52
2022/05/04 01:56:08;;;;;;;8.00;7.40;;;11.00;99.90;;;;;;6307219;28;20332;-53
2022/05/04 01:59:20;;;;;;;7.37;6.97;;;10.90;99.90;;;;;;6306312;27;20236;-52
2022/05/04 02:02:23;;;;;;;7.20;6.80;;;10.90;99.90;;;;;;6307921;28;20328;-52
2022/05/04 02:05:28;;;;;;;7.60;7.20;;;10.80;99.90;;;;;;6311868;28;20635;-52
2022/05/04 02:08:34;;;;;;;7.63;7.23;;;10.80;99.90;;;;;;6304294;28;20245;-52
2022/05/04 02:11:38;;;;;;;7.50;7.20;;;10.80;99.90;;;;;;6308136;27;20237;-53
2022/05/04 02:14:41;;;;;;;8.00;7.40;;;10.70;99.90;;;;;;6314223;28;20261;-52
2022/05/04 02:17:44;;;;;;;9.57;8.50;;;10.70;99.90;;;;;;6304315;28;21068;-53
2022/05/04 02:20:46;;;;;;;8.57;7.80;;;10.70;99.90;;;;;;6285006;28;20244;-53
2022/05/04 02:23:51;;;;;;;7.93;7.43;;;10.70;99.90;;;;;;6289430;28;20283;-52
2022/05/04 02:26:53;;;;;;;8.00;7.40;;;10.70;99.90;;;;;;6294390;28;20647;-51
2022/05/04 02:29:56;;;;;;;8.17;7.47;;;10.70;99.90;;;;;;6286169;28;20663;-57
2022/05/04 02:32:59;;;;;;;7.87;7.37;;;10.60;99.90;;;;;;6274280;28;20243;-53
2022/05/04 02:39:24;;;;;;;8.33;7.90;;;10.60;99.90;;;;;;6278183;28;20642;-53
2022/05/04 02:42:26;;;;;;;8.67;8.13;;;10.50;99.90;;;;;;6284867;28;20644;-53
2022/05/04 02:45:29;;;;;;;8.70;8.00;;;10.50;99.90;;;;;;6306253;28;20239;-53
2022/05/04 02:48:32;;;;;;;7.07;6.73;;;10.50;99.90;;;;;;6306150;28;20263;-52
2022/05/04 02:51:35;;;;;;;7.47;7.07;;;10.50;99.90;;;;;;6305371;28;20331;-53
2022/05/04 02:54:39;;;;;;;7.67;6.97;;;10.50;99.90;;;;;;6304937;28;20225;-53
2022/05/04 02:57:41;;;;;;;7.50;7.10;;;10.40;99.90;;;;;;6276408;28;20738;-51
2022/05/04 03:00:44;;;;;;;7.60;7.20;;;10.40;99.90;;;;;;6276198;28;20551;-52
2022/05/04 03:03:46;;;;;;;8.20;7.70;;;10.40;99.90;;;;;;6278807;28;20418;-53
2022/05/04 03:06:49;;;;;;;7.93;7.43;;;10.30;99.90;;;;;;6276851;28;20232;-52
2022/05/04 03:09:53;;;;;;;8.40;7.90;;;10.30;99.90;;;;;;6279577;28;20322;-52
2022/05/04 03:12:58;;;;;;;8.70;8.20;;;10.20;99.90;;;;;;6277639;28;20799;-52
2022/05/04 03:16:07;;;;;;;8.90;8.30;;;10.20;99.90;;;;;;6279294;28;20241;-53
2022/05/04 03:19:21;;;;;;;9.20;8.50;;;10.20;99.90;;;;;;6278393;28;20247;-53
2022/05/04 03:22:24;;;;;;;9.10;8.40;;;10.20;99.90;;;;;;6303855;28;20240;-53
2022/05/04 03:25:28;;;;;;;10.77;9.87;;;10.10;99.90;;;;;;6300305;28;20255;-53
2022/05/04 03:28:30;;;;;;;8.80;8.20;;;10.10;99.90;;;;;;6304220;28;20232;-52
2022/05/04 03:31:33;;;;;;;8.77;8.07;;;10.10;99.90;;;;;;6291722;28;20245;-52
2022/05/04 03:34:36;;;;;;;8.37;7.80;;;10.10;99.90;;;;;;6303073;28;20539;-53
2022/05/04 03:37:39;;;;;;;8.37;7.77;;;10.10;99.90;;;;;;6309926;28;20248;-54
2022/05/04 03:40:43;;;;;;;9.80;9.10;;;10.10;99.90;;;;;;6308011;28;20317;-52
2022/05/04 03:43:46;;;;;;;8.73;8.23;;;10.10;99.90;;;;;;6302534;28;20731;-52
2022/05/04 03:46:50;;;;;;;7.77;7.27;;;10.10;99.90;;;;;;6310013;28;20232;-52
2022/05/04 03:49:52;;;;;;;8.43;7.93;;;10.10;99.90;;;;;;6311632;28;20363;-50
2022/05/04 03:52:56;;;;;;;9.07;8.57;;;10.10;99.90;;;;;;6309154;28;20228;-52
2022/05/04 03:56:09;;;;;;;8.73;8.03;;;10.20;99.90;;;;;;6309609;28;20642;-52
2022/05/04 03:59:12;;;;;;;7.93;7.43;;;10.20;99.90;;;;;;6305036;28;20241;-52
2022/05/04 04:02:14;;;;;;;7.93;7.43;;;10.20;99.90;;;;;;6310946;28;20430;-52
2022/05/04 04:05:17;;;;;;;8.30;7.80;;;10.20;99.90;;;;;;6304958;28;20243;-53
2022/05/04 04:08:21;;;;;;;7.53;7.13;;;10.20;99.90;;;;;;6301008;28;20838;-51
2022/05/04 04:11:26;;;;;;;7.40;7.10;;;10.30;99.90;;;;;;6302754;28;20896;-53
2022/05/04 04:14:29;;;;;;;7.60;7.20;;;10.30;99.90;;;;;;6302411;28;20705;-53
2022/05/04 04:17:32;;;;;;;7.43;6.93;;;10.30;99.90;;;;;;6308347;28;20233;-52
2022/05/04 04:23:56;;;;;;;9.97;9.27;;;10.40;99.90;;;;;;6300259;27;20702;-53
2022/05/04 04:27:01;;;;;;;9.93;9.13;;;10.40;99.90;;;;;;6299560;27;20285;-52
2022/05/04 04:30:05;;;;;;;9.07;8.57;;;10.50;99.90;;;;;;6304599;27;20237;-52
2022/05/04 04:33:08;;;;;;;8.13;7.67;;;10.60;99.90;;;;;;6293457;28;20453;-53
2022/05/04 04:36:13;;;;;;;9.27;8.57;;;10.80;99.90;;;;;;6307128;28;20272;-52
2022/05/04 04:39:16;;;;;;;9.57;8.73;;;10.80;99.90;;;;;;6306164;28;20227;-52
2022/05/04 04:42:20;;;;;;;9.87;9.17;;;10.90;99.90;;;;;;6304697;28;20360;-53
2022/05/04 04:45:23;;;;;;;8.63;8.13;;;11.00;99.90;;;;;;6308091;28;20974;-53
2022/05/04 04:48:26;;;;;;;9.40;8.57;;;11.10;99.90;;;;;;6304206;28;20740;-53
2022/05/04 04:51:29;;;;;;;11.23;9.87;;;11.20;99.90;;;;;;6307853;28;20311;-52
2022/05/04 04:54:31;;;;;;;11.47;10.40;;;11.40;99.90;;;;;;6303721;28;20292;-53
2022/05/04 04:57:36;;;;;;;13.73;10.37;;;11.40;99.90;;;;;;6302940;28;20797;-53
2022/05/04 05:00:39;;;;;;;9.80;9.00;;;11.50;99.90;;;;;;6315809;28;20697;-49
2022/05/04 05:03:41;;;;;;;11.30;10.37;;;11.70;99.90;;;;;;6302575;28;20316;-52
2022/05/04 05:06:44;;;;;;;11.03;10.17;;;11.70;99.90;;;;;;6304203;28;20240;-51
2022/05/04 05:09:47;;;;;;;12.00;9.90;;;11.80;99.90;;;;;;6304564;28;20241;-53
2022/05/04 05:12:52;;;;;;;11.20;10.20;;;11.90;99.90;;;;;;6304474;28;20239;-52
2022/05/04 05:16:09;;;;;;;10.90;10.07;;;12.00;99.90;;;;;;6305416;28;20271;-53
2022/05/04 05:19:11;;;;;;;10.73;9.70;;;12.00;99.90;;;;;;6298961;28;20283;-53
2022/05/04 05:22:15;;;;;;;10.73;9.87;;;12.20;99.90;;;;;;6306648;28;20240;-52
2022/05/04 05:25:18;;;;;;;10.30;9.60;;;12.20;99.90;;;;;;6306098;28;20239;-53
2022/05/04 05:28:23;;;;;;;11.60;10.57;;;12.40;99.90;;;;;;6311257;28;20437;-52
2022/05/04 05:31:26;;;;;;;9.90;9.10;;;12.50;99.90;;;;;;6307414;28;20253;-53
2022/05/04 05:34:31;;;;;;;10.87;9.83;;;12.60;99.90;;;;;;6306228;28;20259;-53
2022/05/04 05:37:34;;;;;;;10.57;9.67;;;12.70;99.90;;;;;;6309778;28;20233;-53
2022/05/04 05:40:37;;;;;;;12.13;10.47;;;12.80;99.90;;;;;;6296840;28;20422;-51
2022/05/04 05:43:41;;;;;;;11.30;10.07;;;12.90;99.90;;;;;;6309600;28;20271;-52
2022/05/04 05:46:44;;;;;;;11.40;10.33;;;13.00;99.90;;;;;;6310870;28;20293;-54
2022/05/04 05:49:46;;;;;;;10.83;9.93;;;13.10;99.90;;;;;;6310467;28;20245;-53
2022/05/04 05:52:56;;;;;;;21.53;11.23;;;13.30;99.90;;;;;;6310700;28;20613;-52
2022/05/04 05:55:59;;;;;;;13.43;10.23;;;13.30;99.90;;;;;;6313136;28;20781;-53
2022/05/04 05:59:03;;;;;;;10.90;9.97;;;13.40;99.90;;;;;;6314803;28;20229;-54
2022/05/04 06:02:09;;;;;;;10.73;9.87;;;13.60;99.90;;;;;;6309768;28;20576;-53
2022/05/04 06:05:12;;;;;;;10.80;9.80;;;13.70;99.90;;;;;;6308254;28;20643;-52
2022/05/04 06:08:15;;;;;;;14.27;10.13;;;13.90;99.90;;;;;;6308161;28;20317;-53
2022/05/04 06:11:18;;;;;;;10.77;9.70;;;13.90;99.90;;;;;;6307458;28;20244;-53
2022/05/04 06:14:22;;;;;;;11.17;10.20;;;14.10;99.90;;;;;;6310058;28;20237;-52
2022/05/04 06:17:25;;;;;;;10.57;9.63;;;14.10;99.90;;;;;;6309472;28;20323;-52
2022/05/04 06:20:28;;;;;;;10.27;9.47;;;14.20;99.90;;;;;;6308569;28;20316;-53
2022/05/04 06:23:31;;;;;;;10.73;9.70;;;14.40;99.90;;;;;;6307497;28;20235;-53
2022/05/04 06:26:35;;;;;;;9.93;9.00;;;14.50;99.90;;;;;;6311704;28;20236;-53
2022/05/04 06:36:20;;;;;;;9.60;8.70;;;14.90;99.90;;;;;;6306400;28;20274;-53
2022/05/04 06:39:23;;;;;;;8.40;7.90;;;15.00;99.90;;;;;;6312913;27;20491;-53
2022/05/04 06:42:26;;;;;;;8.90;8.00;;;15.10;99.90;;;;;;6311080;28;20234;-53
2022/05/04 06:45:38;;;;;;;9.17;8.53;;;15.10;99.90;;;;;;6313516;28;20489;-55
2022/05/04 06:48:41;;;;;;;9.03;8.33;;;15.20;99.90;;;;;;6320002;27;20225;-54
2022/05/04 06:51:44;;;;;;;8.80;7.73;;;15.30;99.90;;;;;;6312750;28;20317;-52
2022/05/04 06:54:47;;;;;;;16.57;8.80;;;15.30;99.90;;;;;;6308097;28;20727;-53
2022/05/04 06:57:49;;;;;;;9.10;8.30;;;15.50;99.90;;;;;;6307161;28;20319;-53
2022/05/04 07:00:53;;;;;;;8.67;7.90;;;15.50;99.90;;;;;;6308977;28;20244;-53
2022/05/04 07:03:56;;;;;;;8.53;7.83;;;15.50;99.90;;;;;;6285331;28;20275;-54
2022/05/04 07:06:59;;;;;;;10.13;8.33;;;15.60;99.90;;;;;;6281808;28;20356;-53
2022/05/04 07:10:02;;;;;;;9.30;8.50;;;15.70;99.90;;;;;;6280333;28;20785;-53
2022/05/04 07:13:06;;;;;;;11.37;9.00;;;15.80;99.90;;;;;;6281800;28;20726;-53
2022/05/04 07:16:10;;;;;;;9.30;8.40;;;15.90;99.90;;;;;;6283811;28;20781;-54
2022/05/04 07:19:13;;;;;;;7.77;7.17;;;16.00;99.90;;;;;;6278665;28;20344;-52
2022/05/04 07:22:16;;;;;;;9.07;8.37;;;15.90;99.90;;;;;;6287710;28;20229;-52
2022/05/04 07:25:19;;;;;;;9.30;8.10;;;16.10;99.90;;;;;;6270747;28;20239;-51
2022/05/04 07:28:22;;;;;;;8.07;7.37;;;16.10;99.90;;;;;;6281544;28;20717;-53
2022/05/04 07:31:26;;;;;;;10.97;8.57;;;16.20;99.90;;;;;;6286846;28;20592;-51
2022/05/04 07:34:41;;;;;;;8.97;8.07;;;16.30;99.90;;;;;;6299419;28;20261;-52
2022/05/04 07:37:44;;;;;;;9.03;8.13;;;16.30;99.90;;;;;;6313194;28;20894;-53
2022/05/04 07:44:07;;;;;;;11.03;8.17;;;16.30;99.90;;;;;;6286571;28;20719;-53
2022/05/04 07:47:11;;;;;;;10.20;9.13;;;16.50;99.90;;;;;;6277147;28;20753;-53
2022/05/04 07:50:17;;;;;;;9.60;8.03;;;16.60;99.90;;;;;;6303781;28;20248;-52
2022/05/04 07:53:20;;;;;;;9.30;7.70;;;16.60;99.90;;;;;;6312209;28;20535;-54
2022/05/04 07:56:23;;;;;;;8.80;6.87;;;16.80;99.90;;;;;;6301627;28;20302;-53
2022/05/04 07:59:26;;;;;;;8.13;7.30;;;16.90;99.90;;;;;;6307507;28;20305;-53
2022/05/04 08:05:55;;;;;;;11.10;6.70;;;17.00;99.90;;;;;;6299785;28;20316;-52
2022/05/04 08:08:57;;;;;;;6.93;6.43;;;17.00;99.90;;;;;;6311993;28;20323;-54
2022/05/04 08:12:00;;;;;;;6.17;5.87;;;17.00;99.90;;;;;;6308247;28;20505;-53
2022/05/04 08:15:04;;;;;;;6.97;6.47;;;16.90;99.90;;;;;;6313793;28;20714;-53
2022/05/04 08:18:08;;;;;;;8.97;6.83;;;17.00;99.90;;;;;;6309239;28;20247;-54
2022/05/04 08:21:11;;;;;;;7.00;6.40;;;17.10;99.90;;;;;;6302707;28;20315;-53
2022/05/04 08:24:13;;;;;;;6.80;6.30;;;17.10;99.90;;;;;;6304979;28;20617;-53
2022/05/04 08:27:17;;;;;;;5.57;5.27;;;17.00;99.90;;;;;;6303490;28;20490;-53
2022/05/04 08:30:21;;;;;;;5.27;4.80;;;17.10;99.90;;;;;;6315511;28;20776;-53
2022/05/04 08:33:25;;;;;;;5.27;4.13;;;17.20;99.90;;;;;;6301612;28;20237;-53
2022/05/04 08:36:28;;;;;;;5.70;5.40;;;17.30;99.90;;;;;;6299472;28;22454;-53
2022/05/04 08:39:31;;;;;;;6.03;5.57;;;17.40;99.90;;;;;;6306172;28;20289;-53
2022/05/04 08:42:34;;;;;;;7.83;6.13;;;17.60;99.90;;;;;;6307404;28;20247;-55
2022/05/04 08:45:37;;;;;;;8.90;7.10;;;17.70;99.90;;;;;;6309701;28;20229;-54
2022/05/04 08:48:42;;;;;;;6.67;6.07;;;17.90;99.90;;;;;;6307318;28;20458;-53
2022/05/04 08:51:45;;;;;;;6.93;6.43;;;17.90;99.90;;;;;;6311728;28;20285;-56
2022/05/04 08:54:49;;;;;;;7.20;6.67;;;18.00;99.90;;;;;;6306045;28;20304;-53
2022/05/04 08:57:54;;;;;;;10.73;6.90;;;18.10;99.90;;;;;;6304752;27;20255;-52
2022/05/04 09:00:57;;;;;;;7.03;6.37;;;18.20;99.90;;;;;;6310265;28;20366;-53
2022/05/04 09:04:01;;;;;;;6.07;5.67;;;18.40;99.90;;;;;;6314343;28;20319;-52
2022/05/04 09:07:04;;;;;;;6.37;5.93;;;18.60;99.90;;;;;;6305484;28;20278;-53
2022/05/04 09:10:07;;;;;;;6.27;5.80;;;18.80;99.90;;;;;;6310003;28;20233;-53
2022/05/04 09:13:12;;;;;;;6.67;6.23;;;19.00;99.90;;;;;;6318347;28;20390;-57
2022/05/04 09:16:25;;;;;;;7.17;6.07;;;19.20;99.90;;;;;;6315827;27;20236;-53
2022/05/04 09:19:29;;;;;;;6.10;5.60;;;19.30;99.90;;;;;;6314381;27;20529;-53
2022/05/04 09:22:32;;;;;;;8.93;6.50;;;19.60;99.90;;;;;;6308977;28;20347;-54
2022/05/04 09:25:37;;;;;;;8.23;6.67;;;19.80;99.90;;;;;;6302911;28;20224;-53
2022/05/04 09:28:39;;;;;;;6.43;6.00;;;20.00;99.90;;;;;;6310092;28;20268;-53
2022/05/04 09:31:47;;;;;;;6.17;5.57;;;20.10;99.90;;;;;;6306294;28;20279;-53
2022/05/04 09:34:52;;;;;;;7.13;6.53;;;19.90;99.90;;;;;;6311116;28;20240;-53
2022/05/04 09:44:55;;;;;;;6.27;5.47;;;20.10;99.90;;;;;;6309434;28;20327;-53
2022/05/04 09:47:58;;;;;;;8.53;5.47;;;20.40;99.90;;;;;;6298549;28;20324;-49
2022/05/04 09:51:07;;;;;;;13.20;6.33;;;20.50;99.90;;;;;;6310440;28;20327;-54
2022/05/04 09:54:16;;;;;;;7.00;6.37;;;20.40;99.90;;;;;;6307707;28;20263;-53
2022/05/04 09:57:20;;;;;;;10.30;6.20;;;20.30;99.90;;;;;;6306252;28;20282;-55
2022/05/04 10:00:25;;;;;;;7.37;6.47;;;20.20;99.90;;;;;;6308820;28;20319;-54
2022/05/04 10:03:28;;;;;;;6.13;5.53;;;20.20;99.90;;;;;;6309856;28;20277;-53
2022/05/04 10:06:33;;;;;;;6.03;5.60;;;20.20;99.90;;;;;;6304399;28;20255;-54
2022/05/04 10:09:36;;;;;;;6.53;5.90;;;20.20;99.90;;;;;;6305995;28;20323;-53
2022/05/04 10:12:40;;;;;;;9.80;6.17;;;20.30;99.90;;;;;;6304206;28;20710;-55
2022/05/04 10:15:43;;;;;;;6.00;5.30;;;20.30;99.90;;;;;;6311669;28;20243;-53
2022/05/04 10:18:48;;;;;;;7.07;5.77;;;20.40;99.90;;;;;;6308645;28;20256;-54
2022/05/04 10:21:58;;;;;;;6.53;5.80;;;20.40;99.90;;;;;;6289018;28;20320;-53
2022/05/04 10:25:07;;;;;;;8.97;5.60;;;20.50;99.90;;;;;;6290741;28;20233;-54
2022/05/04 10:28:15;;;;;;;6.33;5.17;;;20.70;99.90;;;;;;6278931;28;20330;-58
2022/05/04 10:31:17;;;;;;;6.33;5.10;;;20.80;99.90;;;;;;6274989;28;20249;-54
2022/05/04 10:34:19;;;;;;;6.27;5.60;;;21.00;99.90;;;;;;6277879;28;20248;-53
2022/05/04 10:37:25;;;;;;;6.90;6.50;;;21.10;99.90;;;;;;6306523;27;20844;-54
2022/05/04 10:40:31;;;;;;;6.10;5.70;;;21.00;99.90;;;;;;6276158;28;20265;-54
2022/05/04 10:43:38;;;;;;;6.60;6.23;;;20.30;99.90;;;;;;6282329;28;20343;-55
2022/05/04 10:46:45;;;;;;;6.43;5.93;;;20.20;99.90;;;;;;6309664;28;20294;-53
2022/05/04 10:49:48;;;;;;;9.53;6.73;;;20.10;99.90;;;;;;6306397;28;20231;-53
2022/05/04 10:52:54;;;;;;;7.77;6.63;;;20.00;99.90;;;;;;6308862;28;20247;-54
2022/05/04 10:56:02;;;;;;;7.63;7.03;;;19.60;99.90;;;;;;6312008;28;20458;-54
2022/05/04 10:59:05;;;;;;;7.93;6.30;;;19.50;99.90;;;;;;6306224;28;20323;-54
2022/05/04 11:02:13;;;;;;;7.27;6.77;;;19.40;99.90;;;;;;6308541;28;20346;-53
2022/05/04 11:05:16;;;;;;;6.97;6.37;;;19.30;99.90;;;;;;6299364;28;20244;-53
2022/05/04 11:08:26;;;;;;;6.47;6.10;;;19.20;99.90;;;;;;6303400;28;21018;-55
2022/05/04 11:11:29;;;;;;;7.47;6.77;;;19.20;99.90;;;;;;6303840;28;20243;-53
2022/05/04 11:14:34;;;;;;;7.90;7.30;;;19.30;99.90;;;;;;6309352;28;20369;-53
2022/05/04 11:17:36;;;;;;;10.70;6.13;;;19.50;99.90;;;;;;6307642;28;20233;-54
2022/05/04 11:20:46;;;;;;;6.00;5.53;;;19.60;99.90;;;;;;6311374;28;20240;-53
2022/05/04 11:23:51;;;;;;;7.27;6.87;;;19.80;99.90;;;;;;6307829;28;20312;-53
2022/05/04 11:26:55;;;;;;;6.70;6.00;;;20.00;99.90;;;;;;6306923;28;20538;-53
2022/05/04 11:29:58;;;;;;;6.40;5.93;;;20.20;99.90;;;;;;6302806;28;20313;-53
2022/05/04 11:33:06;;;;;;;6.47;6.07;;;20.40;99.90;;;;;;6311763;28;20240;-53
2022/05/04 11:36:10;;;;;;;5.53;5.10;;;20.50;99.90;;;;;;6306139;28;20328;-54
2022/05/04 11:39:16;;;;;;;7.00;5.87;;;20.90;99.90;;;;;;6305373;28;20379;-53
2022/05/04 11:42:19;;;;;;;6.37;5.87;;;21.10;99.90;;;;;;6303970;28;20279;-54
2022/05/04 11:45:25;;;;;;;6.13;5.70;;;21.10;99.90;;;;;;6304317;28;20778;-54
2022/05/04 11:48:28;;;;;;;6.40;5.90;;;21.10;99.90;;;;;;6307182;28;20614;-54
2022/05/04 11:51:31;;;;;;;6.93;5.63;;;21.00;99.90;;;;;;6304903;28;20244;-53
2022/05/04 11:54:35;;;;;;;6.30;5.93;;;20.90;99.90;;;;;;6304909;28;20325;-54
2022/05/04 11:57:41;;;;;;;5.73;5.27;;;20.90;99.90;;;;;;6304114;28;20394;-53
2022/05/04 12:00:44;;;;;;;6.57;6.07;;;20.80;99.90;;;;;;6309632;28;20224;-54
2022/05/04 12:03:47;;;;;;;7.43;6.40;;;20.80;99.90;;;;;;6303767;28;20791;-52
2022/05/04 12:06:50;;;;;;;5.37;5.07;;;20.60;99.90;;;;;;6303979;28;20558;-54
2022/05/04 12:09:54;;;;;;;6.23;5.67;;;20.60;99.90;;;;;;6309848;28;20403;-53
2022/05/04 12:13:01;;;;;;;6.07;5.30;;;20.60;99.90;;;;;;6308578;28;21897;-53
2022/05/04 12:16:04;;;;;;;6.00;5.70;;;20.70;99.90;;;;;;6306437;28;20294;-53
2022/05/04 12:19:09;;;;;;;5.40;5.10;;;20.70;99.90;;;;;;6305983;28;20245;-54
2022/05/04 12:22:12;;;;;;;6.17;5.57;;;20.80;99.90;;;;;;6305197;28;20236;-53
2022/05/04 12:25:21;;;;;;;9.37;5.67;;;20.70;99.90;;;;;;6308865;28;20235;-53
2022/05/04 12:28:24;;;;;;;6.93;6.40;;;20.70;99.90;;;;;;6278889;28;20246;-53
2022/05/04 12:34:48;;;;;;;5.97;5.50;;;20.70;99.90;;;;;;6266944;28;20491;-54
2022/05/04 12:37:52;;;;;;;6.27;5.87;;;20.60;99.90;;;;;;6277152;28;20253;-54
2022/05/04 12:40:57;;;;;;;5.93;5.47;;;20.60;99.90;;;;;;6296166;28;20236;-53
2022/05/04 12:44:06;;;;;;;6.13;5.77;;;20.70;99.90;;;;;;6284234;28;20251;-53
2022/05/04 12:47:08;;;;;;;8.77;5.87;;;20.70;99.90;;;;;;6282981;28;20350;-53
2022/05/04 12:50:11;;;;;;;6.30;6.00;;;20.80;99.90;;;;;;6285850;28;20267;-53
2022/05/04 12:53:16;;;;;;;6.00;5.60;;;21.00;99.90;;;;;;6285685;28;20343;-54
2022/05/04 12:59:41;;;;;;;6.00;5.60;;;21.40;99.90;;;;;;6291085;28;20310;-53
2022/05/04 13:02:45;;;;;;;6.40;5.80;;;21.80;99.90;;;;;;6308851;28;20228;-55
2022/05/04 13:06:00;;;;;;;6.33;5.83;;;21.90;99.90;;;;;;6304967;28;20803;-55
2022/05/04 13:09:04;;;;;;;6.73;6.07;;;22.10;99.90;;;;;;6308130;28;20237;-52
2022/05/04 13:12:11;;;;;;;7.23;6.50;;;22.20;99.90;;;;;;6305308;28;20236;-53
2022/05/04 13:15:14;;;;;;;6.53;6.00;;;22.00;99.90;;;;;;6307151;28;20328;-53
2022/05/04 13:18:16;;;;;;;6.97;6.47;;;21.80;99.90;;;;;;6301956;28;20383;-54
2022/05/04 13:21:21;;;;;;;6.20;5.90;;;21.70;99.90;;;;;;6307870;28;20236;-54
2022/05/04 13:24:23;;;;;;;5.87;5.37;;;21.80;99.90;;;;;;6306948;28;20241;-54
2022/05/04 13:27:28;;;;;;;7.23;6.20;;;21.80;99.90;;;;;;6265454;28;20486;-53
2022/05/04 13:30:31;;;;;;;6.17;5.63;;;21.80;99.90;;;;;;6280035;28;20347;-53
2022/05/04 13:33:33;;;;;;;5.77;5.27;;;21.70;99.90;;;;;;6277119;28;20225;-52
2022/05/04 13:36:36;;;;;;;7.07;6.33;;;21.70;99.90;;;;;;6276191;28;20489;-52
2022/05/04 13:39:39;;;;;;;5.73;5.40;;;21.60;99.90;;;;;;6279270;28;20314;-53
2022/05/04 13:42:43;;;;;;;6.57;6.00;;;21.60;99.90;;;;;;6273508;28;20240;-52
2022/05/04 13:45:47;;;;;;;6.07;5.77;;;21.50;99.90;;;;;;6280894;28;20395;-53
2022/05/04 13:48:59;;;;;;;7.93;5.60;;;21.40;99.90;;;;;;6284007;28;20298;-53
2022/05/04 13:55:23;;;;;;;6.13;5.63;;;21.40;99.90;;;;;;6275465;28;20229;-54
2022/05/04 13:58:27;;;;;;;6.80;6.37;;;21.50;99.90;;;;;;6304672;28;20241;-53
2022/05/04 14:01:30;;;;;;;5.73;5.27;;;21.40;99.90;;;;;;6299470;28;20312;-54
2022/05/04 14:04:38;;;;;;;7.67;6.70;;;21.40;99.90;;;;;;6285816;28;20697;-54
2022/05/04 14:07:42;;;;;;;6.57;6.23;;;21.30;99.90;;;;;;6285632;28;20814;-54
2022/05/04 14:10:47;;;;;;;6.20;5.90;;;21.30;99.90;;;;;;6305798;28;20303;-54
2022/05/04 14:15:01;;;;;;;6.80;6.40;;;21.40;99.90;;;;;;6308734;28;20374;-54
2022/05/04 14:17:18;;;;;;;6.23;5.73;;;21.50;99.90;;;;;;6282099;28;20446;-53
2022/05/04 14:20:21;;;;;;;6.90;6.40;;;21.60;99.90;;;;;;6283229;28;20379;-54
2022/05/04 14:23:24;;;;;;;7.30;6.70;;;21.40;99.90;;;;;;6278617;28;20252;-53
2022/05/04 14:26:26;;;;;;;8.23;5.83;;;21.20;99.90;;;;;;6281283;28;20620;-54
2022/05/04 14:29:30;;;;;;;7.30;6.70;;;21.30;99.90;;;;;;6282024;28;20249;-54
2022/05/04 14:32:33;;;;;;;6.33;6.00;;;21.20;99.90;;;;;;6278452;28;20313;-54
2022/05/04 14:35:37;;;;;;;6.83;6.37;;;21.20;99.90;;;;;;6275775;28;20698;-53
2022/05/04 14:38:39;;;;;;;7.30;6.63;;;21.20;99.90;;;;;;6307580;28;20321;-53
2022/05/04 14:41:42;;;;;;;6.87;6.37;;;21.30;99.90;;;;;;6304640;28;20654;-54
2022/05/04 14:44:46;;;;;;;6.23;5.93;;;21.40;99.90;;;;;;6311185;28;20663;-54
2022/05/04 14:47:50;;;;;;;7.00;6.40;;;21.40;99.90;;;;;;6310471;28;20937;-55
2022/05/04 14:50:53;;;;;;;6.53;6.07;;;21.40;99.90;;;;;;6315565;28;20538;-54
2022/05/04 14:53:55;;;;;;;6.17;5.60;;;21.40;99.90;;;;;;6308002;28;20752;-55
2022/05/04 14:56:58;;;;;;;7.83;6.53;;;21.40;99.90;;;;;;6302172;28;20236;-54
2022/05/04 15:00:03;;;;;;;6.40;6.10;;;21.40;99.90;;;;;;6308784;28;20252;-55
2022/05/04 15:06:28;;;;;;;6.30;5.90;;;21.50;99.90;;;;;;6303452;27;20259;-54
2022/05/04 15:09:31;;;;;;;6.33;5.93;;;21.40;99.90;;;;;;6309286;28;20597;-56
2022/05/04 15:12:34;;;;;;;5.57;5.30;;;21.50;99.90;;;;;;6308158;28;20321;-54
2022/05/04 15:15:43;;;;;;;5.13;4.93;;;21.40;99.90;;;;;;6308224;28;20240;-55
2022/05/04 15:18:46;;;;;;;5.90;5.53;;;21.40;99.90;;;;;;6294049;28;20232;-51
2022/05/04 15:21:49;;;;;;;7.27;6.03;;;21.40;99.90;;;;;;6308491;28;20325;-54
2022/05/04 15:24:52;;;;;;;7.10;6.50;;;21.30;99.90;;;;;;6304065;28;20233;-54
2022/05/04 15:27:56;;;;;;;6.03;5.70;;;21.20;99.90;;;;;;6305276;28;20542;-54
2022/05/04 15:31:02;;;;;;;7.97;5.97;;;21.10;99.90;;;;;;6306344;28;20850;-54
2022/05/04 15:34:06;;;;;;;5.80;5.50;;;21.00;99.90;;;;;;6304416;28;20498;-55
2022/05/04 15:37:09;;;;;;;6.37;5.87;;;20.90;99.90;;;;;;6305502;28;20321;-54
2022/05/04 15:40:12;;;;;;;8.30;6.30;;;20.80;99.90;;;;;;6305436;28;20236;-54
2022/05/04 15:43:15;;;;;;;6.63;6.03;;;20.70;99.90;;;;;;6312997;28;20563;-54
2022/05/04 15:46:19;;;;;;;6.30;6.00;;;20.50;99.90;;;;;;6299517;28;20324;-55
2022/05/04 15:49:22;;;;;;;6.07;5.60;;;20.40;99.90;;;;;;6281456;28;20675;-55
2022/05/04 15:52:26;;;;;;;6.27;5.87;;;20.30;99.90;;;;;;6282204;28;20651;-59
2022/05/04 15:55:28;;;;;;;7.07;6.60;;;20.30;99.90;;;;;;6277026;28;20237;-54
2022/05/04 15:58:31;;;;;;;6.60;6.10;;;20.10;99.90;;;;;;6278399;28;20233;-55
2022/05/04 16:01:35;;;;;;;6.43;6.13;;;20.00;99.90;;;;;;6279918;28;20226;-54
2022/05/04 16:04:38;;;;;;;6.07;5.60;;;19.90;99.90;;;;;;6278393;28;20278;-53
2022/05/04 16:07:41;;;;;;;5.87;5.53;;;19.80;99.90;;;;;;6300719;28;20374;-54
2022/05/04 16:10:44;;;;;;;5.73;5.33;;;19.70;99.90;;;;;;6304040;28;20229;-56
2022/05/04 16:13:47;;;;;;;5.40;5.20;;;19.70;99.90;;;;;;6304913;28;20289;-55
2022/05/04 16:23:32;;;;;;;5.90;5.43;;;19.50;99.90;;;;;;6299798;27;20370;-52
2022/05/04 16:26:43;;;;;;;6.20;5.80;;;19.50;99.90;;;;;;6293728;28;20343;-54
2022/05/04 16:29:46;;;;;;;6.27;5.77;;;19.40;99.90;;;;;;6291197;28;20225;-54
2022/05/04 16:32:50;;;;;;;6.37;5.70;;;19.40;99.90;;;;;;6299842;28;20313;-54
2022/05/04 16:36:02;;;;;;;5.27;4.97;;;19.40;99.90;;;;;;6289821;28;20362;-54
2022/05/04 16:39:05;;;;;;;5.77;5.37;;;19.30;99.90;;;;;;6298707;28;20241;-53
2022/05/04 16:42:08;;;;;;;6.07;5.50;;;19.30;99.90;;;;;;6294629;28;20721;-55
2022/05/04 16:45:12;;;;;;;5.87;5.57;;;19.20;99.90;;;;;;6291405;28;20247;-54
2022/05/04 16:48:17;;;;;;;5.80;5.40;;;19.20;99.90;;;;;;6293848;28;20233;-53